createdAt,value
2023-02-26T00:01:29.350Z,96.55
2023-02-26T00:04:18.540Z,94.35
2023-02-26T00:07:00.333Z,95.05
2023-02-26T00:09:42.457Z,95.65
2023-02-26T00:12:31.356Z,95.00
2023-02-26T00:15:16.065Z,92.72
2023-02-26T00:18:16.334Z,92.45
2023-02-26T00:20:58.779Z,93.57
2023-02-26T00:23:47.313Z,90.55
2023-02-26T00:26:38.575Z,93.57
2023-02-26T00:29:21.319Z,92.43
2023-02-26T00:32:11.101Z,94.63
2023-02-26T00:34:55.301Z,93.70
2023-02-26T00:37:41.122Z,92.47
2023-02-26T00:40:36.634Z,91.50
2023-02-26T00:43:31.639Z,90.88
2023-02-26T00:46:52.535Z,93.38
2023-02-26T00:49:55.344Z,90.57
2023-02-26T00:52:50.088Z,97.30
2023-02-26T00:55:39.277Z,91.40
2023-02-26T00:58:21.581Z,93.63
2023-02-26T01:01:10.330Z,90.47
2023-02-26T01:03:52.755Z,93.53
2023-02-26T01:06:45.363Z,93.25
2023-02-26T01:09:35.589Z,93.40
2023-02-26T01:12:25.307Z,95.32
2023-02-26T01:15:07.958Z,91.85
2023-02-26T01:18:22.328Z,93.50
2023-02-26T01:21:30.722Z,93.68
2023-02-26T01:24:23.493Z,94.57
2023-02-26T01:27:05.592Z,96.95
2023-02-26T01:29:54.303Z,95.15
2023-02-26T01:32:56.634Z,95.18
2023-02-26T01:35:59.313Z,92.65
2023-02-26T01:39:07.600Z,91.00
2023-02-26T01:42:33.575Z,90.13
2023-02-26T01:45:35.145Z,92.30
2023-02-26T01:49:09.306Z,91.00
2023-02-26T01:51:58.477Z,92.07
2023-02-26T01:54:53.271Z,92.47
2023-02-26T01:57:41.578Z,93.32
2023-02-26T02:00:24.307Z,90.78
2023-02-26T02:03:14.381Z,90.13
2023-02-26T02:06:02.541Z,90.97
2023-02-26T02:08:53.295Z,90.85
2023-02-26T02:11:35.794Z,92.95
2023-02-26T02:14:33.353Z,90.70
2023-02-26T02:17:38.331Z,92.28
2023-02-26T02:21:01.064Z,91.68
2023-02-26T02:24:10.295Z,90.20
2023-02-26T02:27:25.888Z,92.38
2023-02-26T02:30:28.369Z,95.20
2023-02-26T02:33:27.576Z,94.03
2023-02-26T02:36:23.721Z,93.28
2023-02-26T02:39:15.278Z,92.50
2023-02-26T02:42:18.330Z,91.88
2023-02-26T02:45:19.159Z,95.13
2023-02-26T02:48:22.259Z,92.60
2023-02-26T02:51:22.330Z,92.05
2023-02-26T02:54:35.302Z,93.18
2023-02-26T02:57:29.582Z,90.30
2023-02-26T03:00:18.307Z,92.18
2023-02-26T03:03:31.580Z,94.20
2023-02-26T03:06:14.310Z,91.25
2023-02-26T03:09:06.592Z,94.03
2023-02-26T03:11:50.264Z,91.43
2023-02-26T03:14:39.527Z,93.95
2023-02-26T03:17:49.312Z,92.38
2023-02-26T03:20:41.588Z,101.85
2023-02-26T03:23:40.304Z,110.72
2023-02-26T03:26:55.292Z,116.35
2023-02-26T03:30:03.671Z,116.43
2023-02-26T03:33:04.312Z,113.28
2023-02-26T03:35:53.596Z,109.50
2023-02-26T03:38:50.308Z,107.78
2023-02-26T03:41:46.613Z,98.45
2023-02-26T03:44:46.253Z,97.68
2023-02-26T03:47:36.602Z,101.22
2023-02-26T03:50:30.251Z,102.45
2023-02-26T03:53:41.309Z,100.35
2023-02-26T03:56:30.616Z,100.93
2023-02-26T03:59:45.264Z,98.90
2023-02-26T04:03:30.365Z,96.75
2023-02-26T04:06:13.226Z,92.03
2023-02-26T04:09:03.298Z,90.78
2023-02-26T04:11:46.695Z,89.75
2023-02-26T04:14:36.245Z,94.32
2023-02-26T04:17:19.224Z,89.90
2023-02-26T04:20:08.325Z,88.85
2023-02-26T04:22:56.539Z,85.88
2023-02-26T04:25:39.321Z,84.47
2023-02-26T04:28:30.576Z,94.28
2023-02-26T04:31:14.603Z,90.80
2023-02-26T04:34:03.302Z,92.90
2023-02-26T04:36:47.565Z,91.80
2023-02-26T04:39:36.312Z,95.45
2023-02-26T04:42:19.590Z,100.50
2023-02-26T04:45:09.336Z,98.70
2023-02-26T04:48:06.119Z,98.55
2023-02-26T04:50:55.314Z,101.50
2023-02-26T04:53:37.581Z,99.05
2023-02-26T04:56:27.595Z,99.47
2023-02-26T04:59:11.587Z,107.60
2023-02-26T05:02:01.365Z,110.90
2023-02-26T05:04:48.578Z,107.55
2023-02-26T05:07:37.293Z,111.93
2023-02-26T05:10:20.576Z,109.95
2023-02-26T05:13:09.270Z,107.82
2023-02-26T05:15:58.360Z,109.43
2023-02-26T05:18:46.548Z,103.90
2023-02-26T05:21:29.364Z,104.47
2023-02-26T05:24:18.572Z,102.68
2023-02-26T05:27:01.296Z,103.47
2023-02-26T05:29:53.210Z,101.65
2023-02-26T05:32:43.656Z,99.05
2023-02-26T05:35:31.553Z,100.35
2023-02-26T05:38:13.270Z,99.05
2023-02-26T05:41:05.601Z,96.78
2023-02-26T05:43:47.370Z,92.18
2023-02-26T05:46:43.232Z,84.30
2023-02-26T05:49:32.341Z,85.63
2023-02-26T05:52:14.570Z,78.10
2023-02-26T05:55:04.316Z,81.82
2023-02-26T05:57:47.540Z,80.78
2023-02-26T06:00:36.331Z,82.97
2023-02-26T06:03:18.644Z,66.78
2023-02-26T06:06:07.257Z,60.88
2023-02-26T06:08:49.679Z,55.08
2023-02-26T06:11:39.321Z,42.35
2023-02-26T06:14:21.642Z,43.08
2023-02-26T06:17:12.304Z,37.33
2023-02-26T06:19:54.692Z,24.58
2023-02-26T06:22:43.256Z,24.33
2023-02-26T06:25:25.752Z,20.35
2023-02-26T06:28:14.321Z,22.63
2023-02-26T06:30:56.622Z,22.20
2023-02-26T06:33:45.619Z,24.20
2023-02-26T06:36:27.794Z,23.90
2023-02-26T06:39:16.294Z,27.13
2023-02-26T06:41:58.511Z,28.27
2023-02-26T06:44:47.340Z,29.13
2023-02-26T06:47:44.211Z,29.90
2023-02-26T06:50:33.314Z,33.90
2023-02-26T06:53:15.553Z,33.40
2023-02-26T06:56:04.363Z,34.13
2023-02-26T06:58:46.567Z,33.83
2023-02-26T07:01:35.287Z,33.17
2023-02-26T07:04:19.754Z,33.13
2023-02-26T07:07:09.235Z,32.72
2023-02-26T07:09:52.688Z,27.55
2023-02-26T07:12:41.314Z,26.13
2023-02-26T07:15:23.567Z,26.02
2023-02-26T07:18:12.572Z,23.77
2023-02-26T07:20:58.527Z,27.95
2023-02-26T07:23:47.281Z,29.77
2023-02-26T07:26:29.510Z,26.90
2023-02-26T07:29:18.278Z,24.98
2023-02-26T07:32:00.797Z,24.88
2023-02-26T07:34:49.310Z,26.75
2023-02-26T07:37:32.559Z,25.65
2023-02-26T07:43:10.644Z,28.30
2023-02-26T07:46:00.606Z,25.92
2023-02-26T07:48:49.364Z,24.13
2023-02-26T07:51:32.595Z,21.15
2023-02-26T07:54:22.377Z,20.05
2023-02-26T07:57:04.710Z,19.35
2023-02-26T07:59:53.285Z,19.70
2023-02-26T08:02:35.551Z,21.67
2023-02-26T08:05:24.227Z,21.77
2023-02-26T08:08:06.684Z,21.40
2023-02-26T08:10:55.354Z,23.48
2023-02-26T08:13:37.529Z,24.45
2023-02-26T08:16:26.623Z,26.08
2023-02-26T08:19:08.585Z,25.33
2023-02-26T08:21:57.233Z,26.67
2023-02-26T08:24:40.384Z,28.35
2023-02-26T08:30:11.554Z,31.13
2023-02-26T08:33:00.267Z,29.77
2023-02-26T08:35:49.244Z,31.17
2023-02-26T08:38:32.217Z,29.75
2023-02-26T08:41:21.308Z,27.25
2023-02-26T08:44:04.504Z,33.70
2023-02-26T08:46:53.836Z,41.10
2023-02-26T08:49:41.557Z,40.70
2023-02-26T08:52:23.342Z,40.85
2023-02-26T08:55:12.602Z,41.67
2023-02-26T08:57:54.224Z,45.70
2023-02-26T09:00:42.641Z,45.80
2023-02-26T09:03:25.245Z,44.05
2023-02-26T09:06:14.632Z,45.85
2023-02-26T09:08:57.310Z,44.65
2023-02-26T09:11:45.599Z,45.97
2023-02-26T09:14:28.356Z,43.47
2023-02-26T09:17:16.567Z,44.55
2023-02-26T09:19:59.250Z,47.22
2023-02-26T09:22:48.543Z,47.42
2023-02-26T09:25:31.324Z,47.63
2023-02-26T09:28:19.772Z,40.75
2023-02-26T09:31:04.364Z,38.58
2023-02-26T09:33:53.293Z,37.67
2023-02-26T09:36:36.956Z,40.10
2023-02-26T09:39:26.294Z,36.33
2023-02-26T09:42:34.058Z,36.25
2023-02-26T09:45:38.425Z,37.45
2023-02-26T09:48:28.881Z,37.00
2023-02-26T09:51:11.293Z,32.40
2023-02-26T09:53:54.771Z,29.95
2023-02-26T09:56:49.230Z,30.52
2023-02-26T09:59:41.602Z,28.42
2023-02-26T10:02:41.347Z,28.45
2023-02-26T10:06:01.306Z,29.02
2023-02-26T10:09:07.696Z,30.17
2023-02-26T10:12:10.354Z,28.20
2023-02-26T10:15:14.701Z,28.35
2023-02-26T10:18:21.330Z,29.48
2023-02-26T10:21:40.655Z,28.13
2023-02-26T10:24:50.256Z,30.38
2023-02-26T10:27:58.232Z,29.38
2023-02-26T10:30:59.398Z,28.90
2023-02-26T10:33:51.273Z,30.45
2023-02-26T10:36:59.312Z,29.48
2023-02-26T10:39:54.589Z,28.48
2023-02-26T10:43:29.314Z,28.98
2023-02-26T10:46:11.650Z,28.65
2023-02-26T10:49:45.339Z,30.23
2023-02-26T10:52:34.865Z,29.85
2023-02-26T10:55:52.323Z,29.13
2023-02-26T10:58:41.240Z,30.27
2023-02-26T11:01:32.701Z,29.60
2023-02-26T11:04:19.394Z,32.88
2023-02-26T11:07:15.275Z,32.83
2023-02-26T11:09:58.689Z,31.38
2023-02-26T11:12:46.685Z,30.23
2023-02-26T11:15:33.342Z,31.35
2023-02-26T11:18:26.674Z,31.40
2023-02-26T11:21:09.239Z,31.35
2023-02-26T11:24:02.752Z,30.27
2023-02-26T11:26:46.356Z,28.70
2023-02-26T11:29:34.605Z,26.73
2023-02-26T11:32:30.317Z,28.75
2023-02-26T11:35:23.653Z,28.85
2023-02-26T11:38:08.402Z,28.10
2023-02-26T11:41:02.729Z,27.83
2023-02-26T11:43:51.282Z,30.05
2023-02-26T11:46:53.192Z,29.35
2023-02-26T11:49:42.401Z,29.88
2023-02-26T11:52:39.728Z,29.27
2023-02-26T11:55:41.364Z,30.92
2023-02-26T11:58:29.599Z,29.25
2023-02-26T12:01:22.370Z,30.63
2023-02-26T12:04:08.571Z,29.33
2023-02-26T12:07:00.226Z,29.15
2023-02-26T12:09:42.769Z,30.60
2023-02-26T12:12:56.223Z,29.25
2023-02-26T12:15:51.682Z,31.08
2023-02-26T12:18:46.640Z,31.48
2023-02-26T12:21:50.080Z,30.27
2023-02-26T12:24:39.285Z,30.88
2023-02-26T12:27:36.650Z,32.28
2023-02-26T12:30:35.338Z,30.00
2023-02-26T12:33:58.594Z,30.23
2023-02-26T12:37:33.272Z,29.40
2023-02-26T12:40:38.349Z,29.83
2023-02-26T12:43:36.482Z,31.50
2023-02-26T12:46:31.368Z,33.33
2023-02-26T12:49:31.016Z,31.77
2023-02-26T12:52:58.355Z,32.13
2023-02-26T12:56:20.589Z,33.95
2023-02-26T12:59:18.293Z,33.38
2023-02-26T13:02:31.375Z,35.33
2023-02-26T13:05:34.349Z,35.58
2023-02-26T13:08:44.688Z,36.70
2023-02-26T13:12:00.381Z,36.78
2023-02-26T13:15:05.151Z,38.65
2023-02-26T13:18:11.425Z,41.40
2023-02-26T13:21:27.002Z,41.42
2023-02-26T13:24:22.584Z,40.72
2023-02-26T13:27:06.658Z,42.83
2023-02-26T13:30:16.232Z,43.83
2023-02-26T13:33:09.446Z,42.78
2023-02-26T13:35:54.253Z,44.83
2023-02-26T13:39:00.219Z,47.17
2023-02-26T13:42:21.399Z,45.10
2023-02-26T13:45:33.047Z,44.38
2023-02-26T13:48:40.274Z,43.22
2023-02-26T13:51:38.540Z,42.05
2023-02-26T13:54:30.325Z,42.33
2023-02-26T13:57:31.487Z,40.05
2023-02-26T14:00:37.266Z,40.10
2023-02-26T14:03:20.858Z,38.88
2023-02-26T14:06:17.313Z,42.50
2023-02-26T14:09:05.798Z,40.33
2023-02-26T14:12:05.289Z,41.63
2023-02-26T14:14:52.988Z,41.20
2023-02-26T14:18:00.942Z,42.17
2023-02-26T14:20:43.809Z,42.22
2023-02-26T14:23:45.269Z,41.83
2023-02-26T14:26:28.639Z,41.13
2023-02-26T14:29:22.368Z,41.50
2023-02-26T14:32:22.658Z,41.00
2023-02-26T14:35:20.246Z,41.92
2023-02-26T14:38:17.547Z,42.17
2023-02-26T14:41:26.685Z,44.13
2023-02-26T14:44:19.598Z,43.00
2023-02-26T14:47:15.545Z,43.17
2023-02-26T14:50:04.588Z,42.20
2023-02-26T14:53:21.274Z,41.58
2023-02-26T14:56:22.508Z,41.83
2023-02-26T14:59:38.335Z,43.28
2023-02-26T15:02:29.756Z,43.05
2023-02-26T15:05:37.333Z,43.30
2023-02-26T15:08:49.678Z,45.90
2023-02-26T15:11:50.292Z,45.13
2023-02-26T15:14:58.609Z,43.80
2023-02-26T15:18:01.285Z,44.55
2023-02-26T15:20:58.661Z,40.72
2023-02-26T15:23:55.287Z,44.25
2023-02-26T15:26:49.584Z,43.83
2023-02-26T15:29:38.365Z,42.95
2023-02-26T15:32:31.624Z,45.22
2023-02-26T15:35:27.324Z,43.63
2023-02-26T15:38:18.607Z,44.95
2023-02-26T15:41:03.224Z,45.38
2023-02-26T15:43:58.630Z,44.60
2023-02-26T15:46:48.295Z,44.20
2023-02-26T15:49:57.615Z,44.28
2023-02-26T15:52:41.348Z,43.70
2023-02-26T15:55:23.982Z,44.55
2023-02-26T15:58:14.319Z,46.13
2023-02-26T16:01:05.127Z,46.30
2023-02-26T16:03:48.592Z,45.60
2023-02-26T16:06:43.638Z,44.20
2023-02-26T16:09:34.283Z,45.50
2023-02-26T16:12:31.114Z,44.13
2023-02-26T16:15:20.317Z,46.22
2023-02-26T16:18:11.675Z,46.53
2023-02-26T16:20:58.385Z,49.10
2023-02-26T16:23:54.866Z,44.85
2023-02-26T16:26:40.377Z,44.67
2023-02-26T16:29:38.723Z,45.75
2023-02-26T16:32:21.397Z,44.78
2023-02-26T16:35:18.666Z,46.90
2023-02-26T16:38:03.229Z,45.80
2023-02-26T16:40:54.795Z,46.55
2023-02-26T16:43:58.337Z,48.85
2023-02-26T16:46:53.958Z,46.90
2023-02-26T16:49:46.261Z,46.55
2023-02-26T16:52:32.598Z,46.15
2023-02-26T16:55:26.261Z,46.50
2023-02-26T16:58:11.562Z,47.60
2023-02-26T17:01:21.319Z,49.05
2023-02-26T17:04:10.535Z,49.42
2023-02-26T17:07:00.301Z,51.70
2023-02-26T17:09:48.474Z,51.58
2023-02-26T17:12:55.552Z,52.72
2023-02-26T17:15:45.496Z,50.25
2023-02-26T17:18:34.224Z,53.65
2023-02-26T17:21:18.690Z,53.33
2023-02-26T17:24:08.322Z,51.83
2023-02-26T17:26:51.576Z,52.97
2023-02-26T17:29:49.250Z,54.23
2023-02-26T17:32:34.381Z,56.85
2023-02-26T17:35:26.328Z,57.03
2023-02-26T17:38:08.827Z,58.30
2023-02-26T17:40:58.376Z,58.47
2023-02-26T17:43:40.681Z,58.47
2023-02-26T17:46:29.259Z,60.13
2023-02-26T17:49:27.154Z,59.05
2023-02-26T17:52:16.264Z,64.40
2023-02-26T17:54:58.827Z,61.85
2023-02-26T17:57:47.314Z,59.28
2023-02-26T18:00:36.284Z,59.35
2023-02-26T18:03:25.540Z,65.43
2023-02-26T18:06:08.507Z,63.22
2023-02-26T18:08:57.607Z,62.30
2023-02-26T18:11:40.278Z,65.03
2023-02-26T18:14:28.566Z,63.78
2023-02-26T18:17:11.541Z,67.53
2023-02-26T18:20:01.675Z,67.35
2023-02-26T18:22:44.431Z,68.15
2023-02-26T18:25:34.570Z,69.70
2023-02-26T18:28:25.360Z,67.97
2023-02-26T18:31:13.687Z,70.25
2023-02-26T18:33:56.269Z,65.10
2023-02-26T18:36:45.740Z,67.75
2023-02-26T18:39:28.251Z,71.00
2023-02-26T18:42:37.724Z,74.33
2023-02-26T18:45:20.404Z,72.68
2023-02-26T18:48:17.862Z,78.30
2023-02-26T18:51:09.749Z,75.25
2023-02-26T18:53:51.693Z,78.65
2023-02-26T18:56:40.256Z,77.90
2023-02-26T18:59:22.711Z,76.22
2023-02-26T19:02:14.302Z,82.20
2023-02-26T19:04:56.665Z,86.47
2023-02-26T19:07:50.243Z,83.45
2023-02-26T19:10:32.877Z,82.97
2023-02-26T19:13:23.783Z,84.60
2023-02-26T19:16:06.750Z,81.40
2023-02-26T19:18:55.307Z,83.47
2023-02-26T19:21:40.406Z,80.90
2023-02-26T19:24:29.314Z,77.47
2023-02-26T19:27:12.652Z,75.57
2023-02-26T19:30:01.593Z,71.28
2023-02-26T19:32:43.822Z,68.60
2023-02-26T19:35:35.317Z,67.97
2023-02-26T19:38:18.127Z,65.03
2023-02-26T19:41:07.292Z,62.83
2023-02-26T19:43:49.534Z,62.67
2023-02-26T19:46:38.334Z,63.13
2023-02-26T19:49:32.978Z,65.85
2023-02-26T19:52:16.351Z,64.97
2023-02-26T19:55:05.714Z,65.87
2023-02-26T19:57:48.328Z,67.43
2023-02-26T20:00:37.606Z,66.88
2023-02-26T20:03:19.275Z,64.47
2023-02-26T20:06:01.705Z,62.10
2023-02-26T20:08:50.273Z,64.00
2023-02-26T20:11:40.629Z,62.88
2023-02-26T20:14:23.199Z,63.65
2023-02-26T20:17:11.603Z,64.83
2023-02-26T20:19:54.304Z,62.17
2023-02-26T20:22:43.574Z,64.55
2023-02-26T20:25:27.343Z,62.85
2023-02-26T20:28:16.666Z,64.30
2023-02-26T20:30:59.332Z,65.82
2023-02-26T20:33:48.733Z,65.60
2023-02-26T20:36:30.572Z,68.20
2023-02-26T20:39:22.032Z,70.90
2023-02-26T20:42:05.347Z,72.03
2023-02-26T20:44:47.487Z,71.75
2023-02-26T20:47:36.216Z,71.53
2023-02-26T20:50:32.277Z,69.60
2023-02-26T20:53:21.164Z,71.65
2023-02-26T20:56:03.512Z,74.60
2023-02-26T20:58:52.297Z,78.57
2023-02-26T21:01:36.593Z,87.95
2023-02-26T21:04:29.443Z,96.50
2023-02-26T21:07:22.683Z,107.05
2023-02-26T21:10:11.234Z,119.82
2023-02-26T21:12:54.547Z,116.32
2023-02-26T21:15:43.287Z,127.10
2023-02-26T21:18:25.464Z,127.25
2023-02-26T21:21:14.259Z,124.65
2023-02-26T21:23:56.575Z,125.50
2023-02-26T21:26:45.158Z,124.18
2023-02-26T21:29:34.294Z,120.50
2023-02-26T21:32:16.565Z,125.40
2023-02-26T21:35:06.277Z,121.93
2023-02-26T21:37:55.695Z,120.30
2023-02-26T21:40:39.244Z,122.45
2023-02-26T21:43:27.512Z,122.43
2023-02-26T21:46:09.956Z,124.40
2023-02-26T21:49:06.152Z,128.20
2023-02-26T21:51:56.180Z,124.95
2023-02-26T21:54:39.475Z,127.95
2023-02-26T21:57:28.252Z,126.25
2023-02-26T22:00:13.183Z,119.80
2023-02-26T22:03:02.244Z,113.82
2023-02-26T22:05:45.574Z,110.20
2023-02-26T22:08:34.223Z,110.90
2023-02-26T22:11:16.447Z,105.00
2023-02-26T22:14:05.354Z,105.35
2023-02-26T22:16:47.589Z,104.00
2023-02-26T22:19:36.259Z,105.22
2023-02-26T22:22:18.506Z,100.22
2023-02-26T22:25:07.216Z,98.40
2023-02-26T22:27:49.761Z,97.20
2023-02-26T22:30:38.413Z,92.00
2023-02-26T22:33:20.611Z,93.85
2023-02-26T22:36:09.256Z,89.40
2023-02-26T22:38:51.488Z,86.82
2023-02-26T22:41:41.366Z,81.13
2023-02-26T22:44:23.444Z,86.80
2023-02-26T22:47:12.228Z,84.68
2023-02-26T22:50:07.047Z,86.43
2023-02-26T22:52:57.249Z,84.80
2023-02-26T22:55:39.518Z,85.68
2023-02-26T22:58:28.264Z,83.25
2023-02-26T23:01:13.599Z,85.07
2023-02-26T23:04:02.181Z,84.35
2023-02-26T23:06:44.574Z,84.03
2023-02-26T23:09:33.338Z,81.68
2023-02-26T23:12:16.586Z,82.32
2023-02-26T23:15:05.228Z,79.50
2023-02-26T23:17:48.586Z,79.43
2023-02-26T23:20:37.222Z,79.53
2023-02-26T23:23:19.515Z,79.85
2023-02-26T23:26:08.300Z,69.25
2023-02-26T23:28:50.509Z,61.95
2023-02-26T23:31:39.342Z,54.28
2023-02-26T23:34:21.439Z,52.17
2023-02-26T23:37:10.319Z,49.65
2023-02-26T23:39:52.497Z,41.50
2023-02-26T23:42:41.226Z,36.38
2023-02-26T23:45:23.569Z,30.88
2023-02-26T23:48:19.152Z,31.00
2023-02-26T23:51:08.225Z,27.45
2023-02-26T23:53:50.503Z,27.88
2023-02-26T23:56:39.193Z,27.33
2023-02-26T23:59:28.217Z,26.25
